sensor_id;sensor_type;location;lat;lon;timestamp;P1;durP1;ratioP1;P2;durP2;ratioP2
60896;SDS011;46749;32.932;-117.130;2022-08-01T00:00:41;0.45;;;0.40;;
60896;SDS011;46749;32.932;-117.130;2022-08-01T00:03:07;0.30;;;0.30;;
60896;SDS011;46749;32.932;-117.130;2022-08-01T00:05:33;0.75;;;0.30;;
60896;SDS011;46749;32.932;-117.130;2022-08-01T00:08:00;0.30;;;0.30;;
60896;SDS011;46749;32.932;-117.130;2022-08-01T00:10:26;0.40;;;0.40;;
60896;SDS011;46749;32.932;-117.130;2022-08-01T00:12:52;0.43;;;0.40;;
60896;SDS011;46749;32.932;-117.130;2022-08-01T00:15:18;0.75;;;0.47;;
60896;SDS011;46749;32.932;-117.130;2022-08-01T00:17:44;0.30;;;0.30;;
60896;SDS011;46749;32.932;-117.130;2022-08-01T00:20:12;0.40;;;0.40;;
60896;SDS011;46749;32.932;-117.130;2022-08-01T00:22:39;0.20;;;0.20;;
60896;SDS011;46749;32.932;-117.130;2022-08-01T00:25:05;0.43;;;0.30;;
60896;SDS011;46749;32.932;-117.130;2022-08-01T00:27:32;0.30;;;0.30;;
60896;SDS011;46749;32.932;-117.130;2022-08-01T00:29:58;0.40;;;0.40;;
60896;SDS011;46749;32.932;-117.130;2022-08-01T00:32:24;0.28;;;0.28;;
60896;SDS011;46749;32.932;-117.130;2022-08-01T00:34:51;0.30;;;0.30;;
60896;SDS011;46749;32.932;-117.130;2022-08-01T00:37:17;0.40;;;0.40;;
60896;SDS011;46749;32.932;-117.130;2022-08-01T00:39:43;0.30;;;0.30;;
60896;SDS011;46749;32.932;-117.130;2022-08-01T00:42:10;0.40;;;0.40;;
60896;SDS011;46749;32.932;-117.130;2022-08-01T00:44:37;0.40;;;0.40;;
60896;SDS011;46749;32.932;-117.130;2022-08-01T00:47:04;0.40;;;0.40;;
60896;SDS011;46749;32.932;-117.130;2022-08-01T00:49:31;0.30;;;0.30;;
60896;SDS011;46749;32.932;-117.130;2022-08-01T00:51:58;0.47;;;0.47;;
60896;SDS011;46749;32.932;-117.130;2022-08-01T00:54:25;0.30;;;0.30;;
60896;SDS011;46749;32.932;-117.130;2022-08-01T00:56:53;0.30;;;0.30;;
60896;SDS011;46749;32.932;-117.130;2022-08-01T00:59:20;0.40;;;0.40;;
60896;SDS011;46749;32.932;-117.130;2022-08-01T01:01:48;0.30;;;0.30;;
60896;SDS011;46749;32.932;-117.130;2022-08-01T01:04:15;0.30;;;0.30;;
60896;SDS011;46749;32.932;-117.130;2022-08-01T01:09:29;0.30;;;0.30;;
60896;SDS011;46749;32.932;-117.130;2022-08-01T01:15:06;0.40;;;0.40;;
60896;SDS011;46749;32.932;-117.130;2022-08-01T01:17:41;0.50;;;0.40;;
60896;SDS011;46749;32.932;-117.130;2022-08-01T01:20:13;0.30;;;0.30;;
60896;SDS011;46749;32.932;-117.130;2022-08-01T01:31:10;0.40;;;0.40;;
60896;SDS011;46749;32.932;-117.130;2022-08-01T01:33:39;0.20;;;0.20;;
60896;SDS011;46749;32.932;-117.130;2022-08-01T01:36:07;0.50;;;0.50;;
60896;SDS011;46749;32.932;-117.130;2022-08-01T01:38:42;0.30;;;0.30;;
60896;SDS011;46749;32.932;-117.130;2022-08-01T01:41:11;0.30;;;0.30;;
60896;SDS011;46749;32.932;-117.130;2022-08-01T01:43:39;0.40;;;0.40;;
60896;SDS011;46749;32.932;-117.130;2022-08-01T01:46:07;0.32;;;0.32;;
60896;SDS011;46749;32.932;-117.130;2022-08-01T01:48:36;0.43;;;0.43;;
60896;SDS011;46749;32.932;-117.130;2022-08-01T01:51:04;0.35;;;0.32;;
60896;SDS011;46749;32.932;-117.130;2022-08-01T01:53:32;0.40;;;0.40;;
60896;SDS011;46749;32.932;-117.130;2022-08-01T01:56:01;0.40;;;0.40;;
60896;SDS011;46749;32.932;-117.130;2022-08-01T01:58:29;0.30;;;0.30;;
60896;SDS011;46749;32.932;-117.130;2022-08-01T02:00:58;0.30;;;0.30;;
60896;SDS011;46749;32.932;-117.130;2022-08-01T02:03:26;0.30;;;0.30;;
60896;SDS011;46749;32.932;-117.130;2022-08-01T02:05:55;0.60;;;0.40;;
60896;SDS011;46749;32.932;-117.130;2022-08-01T02:08:23;0.40;;;0.40;;
60896;SDS011;46749;32.932;-117.130;2022-08-01T02:10:50;0.30;;;0.30;;
60896;SDS011;46749;32.932;-117.130;2022-08-01T02:13:37;0.40;;;0.40;;
60896;SDS011;46749;32.932;-117.130;2022-08-01T02:16:05;0.43;;;0.43;;
60896;SDS011;46749;32.932;-117.130;2022-08-01T02:18:32;0.63;;;0.50;;
60896;SDS011;46749;32.932;-117.130;2022-08-01T02:20:59;1.20;;;0.52;;
60896;SDS011;46749;32.932;-117.130;2022-08-01T02:23:31;0.40;;;0.40;;
60896;SDS011;46749;32.932;-117.130;2022-08-01T02:26:00;0.73;;;0.50;;
60896;SDS011;46749;32.932;-117.130;2022-08-01T02:28:35;0.50;;;0.50;;
60896;SDS011;46749;32.932;-117.130;2022-08-01T02:31:07;0.50;;;0.50;;
60896;SDS011;46749;32.932;-117.130;2022-08-01T02:33:43;0.80;;;0.60;;
60896;SDS011;46749;32.932;-117.130;2022-08-01T02:36:13;0.47;;;0.47;;
60896;SDS011;46749;32.932;-117.130;2022-08-01T02:38:44;0.52;;;0.40;;
60896;SDS011;46749;32.932;-117.130;2022-08-01T02:41:17;0.52;;;0.47;;
60896;SDS011;46749;32.932;-117.130;2022-08-01T02:43:46;0.40;;;0.40;;
60896;SDS011;46749;32.932;-117.130;2022-08-01T02:46:16;0.60;;;0.60;;
60896;SDS011;46749;32.932;-117.130;2022-08-01T02:48:50;0.50;;;0.50;;
60896;SDS011;46749;32.932;-117.130;2022-08-01T02:51:18;0.70;;;0.40;;
60896;SDS011;46749;32.932;-117.130;2022-08-01T02:53:47;0.73;;;0.60;;
60896;SDS011;46749;32.932;-117.130;2022-08-01T02:56:15;0.50;;;0.50;;
60896;SDS011;46749;32.932;-117.130;2022-08-01T02:58:45;1.02;;;0.50;;
60896;SDS011;46749;32.932;-117.130;2022-08-01T03:01:14;0.57;;;0.45;;
60896;SDS011;46749;32.932;-117.130;2022-08-01T03:03:42;0.80;;;0.70;;
60896;SDS011;46749;32.932;-117.130;2022-08-01T03:06:09;0.70;;;0.60;;
60896;SDS011;46749;32.932;-117.130;2022-08-01T03:08:35;0.80;;;0.60;;
60896;SDS011;46749;32.932;-117.130;2022-08-01T03:11:03;0.77;;;0.70;;
60896;SDS011;46749;32.932;-117.130;2022-08-01T03:13:32;0.70;;;0.70;;
60896;SDS011;46749;32.932;-117.130;2022-08-01T03:15:59;0.60;;;0.60;;
60896;SDS011;46749;32.932;-117.130;2022-08-01T03:18:26;0.60;;;0.52;;
60896;SDS011;46749;32.932;-117.130;2022-08-01T03:20:54;0.65;;;0.60;;
60896;SDS011;46749;32.932;-117.130;2022-08-01T03:23:22;0.60;;;0.60;;
60896;SDS011;46749;32.932;-117.130;2022-08-01T03:25:49;0.40;;;0.40;;
60896;SDS011;46749;32.932;-117.130;2022-08-01T03:28:16;0.60;;;0.60;;
60896;SDS011;46749;32.932;-117.130;2022-08-01T03:30:46;0.60;;;0.60;;
60896;SDS011;46749;32.932;-117.130;2022-08-01T03:33:15;0.70;;;0.57;;
60896;SDS011;46749;32.932;-117.130;2022-08-01T03:35:45;0.65;;;0.60;;
60896;SDS011;46749;32.932;-117.130;2022-08-01T03:38:14;1.48;;;0.85;;
60896;SDS011;46749;32.932;-117.130;2022-08-01T03:40:49;0.70;;;0.60;;
60896;SDS011;46749;32.932;-117.130;2022-08-01T03:43:23;0.60;;;0.60;;
60896;SDS011;46749;32.932;-117.130;2022-08-01T03:46:09;0.57;;;0.57;;
60896;SDS011;46749;32.932;-117.130;2022-08-01T03:48:42;1.48;;;0.70;;
60896;SDS011;46749;32.932;-117.130;2022-08-01T03:51:13;0.55;;;0.50;;
60896;SDS011;46749;32.932;-117.130;2022-08-01T03:53:40;0.95;;;0.70;;
60896;SDS011;46749;32.932;-117.130;2022-08-01T03:56:09;0.55;;;0.50;;
60896;SDS011;46749;32.932;-117.130;2022-08-01T03:58:40;0.70;;;0.70;;
60896;SDS011;46749;32.932;-117.130;2022-08-01T04:01:08;0.60;;;0.50;;
60896;SDS011;46749;32.932;-117.130;2022-08-01T04:03:36;0.50;;;0.50;;
60896;SDS011;46749;32.932;-117.130;2022-08-01T04:06:06;0.55;;;0.50;;
60896;SDS011;46749;32.932;-117.130;2022-08-01T04:08:36;1.42;;;0.65;;
60896;SDS011;46749;32.932;-117.130;2022-08-01T04:11:03;0.93;;;0.60;;
60896;SDS011;46749;32.932;-117.130;2022-08-01T04:13:32;0.70;;;0.60;;
60896;SDS011;46749;32.932;-117.130;2022-08-01T04:15:59;0.75;;;0.70;;
60896;SDS011;46749;32.932;-117.130;2022-08-01T04:18:25;0.90;;;0.70;;
60896;SDS011;46749;32.932;-117.130;2022-08-01T04:20:52;0.85;;;0.70;;
60896;SDS011;46749;32.932;-117.130;2022-08-01T04:23:19;1.45;;;0.70;;
60896;SDS011;46749;32.932;-117.130;2022-08-01T04:25:50;0.98;;;0.73;;
60896;SDS011;46749;32.932;-117.130;2022-08-01T04:28:17;1.05;;;0.70;;
60896;SDS011;46749;32.932;-117.130;2022-08-01T04:30:46;0.80;;;0.70;;
60896;SDS011;46749;32.932;-117.130;2022-08-01T04:33:15;1.05;;;0.68;;
60896;SDS011;46749;32.932;-117.130;2022-08-01T04:35:45;0.88;;;0.70;;
60896;SDS011;46749;32.932;-117.130;2022-08-01T04:38:15;1.02;;;0.88;;
60896;SDS011;46749;32.932;-117.130;2022-08-01T04:40:46;1.67;;;0.73;;
60896;SDS011;46749;32.932;-117.130;2022-08-01T04:43:14;0.90;;;0.80;;
60896;SDS011;46749;32.932;-117.130;2022-08-01T04:45:40;0.60;;;0.60;;
60896;SDS011;46749;32.932;-117.130;2022-08-01T04:48:08;0.73;;;0.73;;
60896;SDS011;46749;32.932;-117.130;2022-08-01T04:50:36;1.15;;;0.70;;
60896;SDS011;46749;32.932;-117.130;2022-08-01T04:53:02;0.90;;;0.63;;
60896;SDS011;46749;32.932;-117.130;2022-08-01T04:55:29;0.63;;;0.63;;
60896;SDS011;46749;32.932;-117.130;2022-08-01T04:57:56;0.93;;;0.70;;
60896;SDS011;46749;32.932;-117.130;2022-08-01T05:00:22;1.90;;;0.80;;
60896;SDS011;46749;32.932;-117.130;2022-08-01T05:02:48;1.15;;;0.68;;
60896;SDS011;46749;32.932;-117.130;2022-08-01T05:05:14;1.35;;;0.70;;
60896;SDS011;46749;32.932;-117.130;2022-08-01T05:07:41;0.80;;;0.80;;
60896;SDS011;46749;32.932;-117.130;2022-08-01T05:10:07;1.13;;;0.70;;
60896;SDS011;46749;32.932;-117.130;2022-08-01T05:12:33;0.57;;;0.50;;
60896;SDS011;46749;32.932;-117.130;2022-08-01T05:15:01;0.63;;;0.57;;
60896;SDS011;46749;32.932;-117.130;2022-08-01T05:17:27;0.80;;;0.70;;
60896;SDS011;46749;32.932;-117.130;2022-08-01T05:19:53;0.93;;;0.50;;
60896;SDS011;46749;32.932;-117.130;2022-08-01T05:22:19;0.82;;;0.70;;
60896;SDS011;46749;32.932;-117.130;2022-08-01T05:24:45;1.33;;;0.80;;
60896;SDS011;46749;32.932;-117.130;2022-08-01T05:27:12;0.85;;;0.68;;
60896;SDS011;46749;32.932;-117.130;2022-08-01T05:29:38;1.27;;;0.80;;
60896;SDS011;46749;32.932;-117.130;2022-08-01T05:32:05;0.70;;;0.70;;
60896;SDS011;46749;32.932;-117.130;2022-08-01T05:34:31;0.50;;;0.50;;
60896;SDS011;46749;32.932;-117.130;2022-08-01T05:36:58;1.25;;;0.60;;
60896;SDS011;46749;32.932;-117.130;2022-08-01T05:39:24;1.08;;;0.80;;
60896;SDS011;46749;32.932;-117.130;2022-08-01T05:41:50;0.90;;;0.80;;
60896;SDS011;46749;32.932;-117.130;2022-08-01T05:44:16;0.60;;;0.57;;
60896;SDS011;46749;32.932;-117.130;2022-08-01T05:46:43;0.70;;;0.70;;
60896;SDS011;46749;32.932;-117.130;2022-08-01T05:49:09;0.80;;;0.73;;
60896;SDS011;46749;32.932;-117.130;2022-08-01T05:51:35;0.88;;;0.70;;
60896;SDS011;46749;32.932;-117.130;2022-08-01T05:54:01;1.02;;;0.80;;
60896;SDS011;46749;32.932;-117.130;2022-08-01T05:56:27;0.98;;;0.80;;
60896;SDS011;46749;32.932;-117.130;2022-08-01T05:58:54;0.80;;;0.70;;
60896;SDS011;46749;32.932;-117.130;2022-08-01T06:01:20;1.10;;;0.80;;
60896;SDS011;46749;32.932;-117.130;2022-08-01T06:03:46;0.60;;;0.60;;
60896;SDS011;46749;32.932;-117.130;2022-08-01T06:06:12;0.65;;;0.60;;
60896;SDS011;46749;32.932;-117.130;2022-08-01T06:08:39;1.02;;;0.77;;
60896;SDS011;46749;32.932;-117.130;2022-08-01T06:11:06;0.60;;;0.60;;
60896;SDS011;46749;32.932;-117.130;2022-08-01T06:13:32;1.02;;;0.82;;
60896;SDS011;46749;32.932;-117.130;2022-08-01T06:15:58;0.63;;;0.60;;
60896;SDS011;46749;32.932;-117.130;2022-08-01T06:18:25;1.15;;;1.05;;
60896;SDS011;46749;32.932;-117.130;2022-08-01T06:20:51;1.40;;;1.02;;
60896;SDS011;46749;32.932;-117.130;2022-08-01T06:23:17;1.00;;;0.90;;
60896;SDS011;46749;32.932;-117.130;2022-08-01T06:25:43;1.00;;;0.80;;
60896;SDS011;46749;32.932;-117.130;2022-08-01T06:28:09;1.25;;;1.00;;
60896;SDS011;46749;32.932;-117.130;2022-08-01T06:30:36;1.05;;;0.90;;
60896;SDS011;46749;32.932;-117.130;2022-08-01T06:33:02;1.17;;;0.88;;
60896;SDS011;46749;32.932;-117.130;2022-08-01T06:35:28;1.20;;;0.80;;
60896;SDS011;46749;32.932;-117.130;2022-08-01T06:37:55;1.13;;;0.93;;
60896;SDS011;46749;32.932;-117.130;2022-08-01T06:40:22;1.10;;;0.93;;
60896;SDS011;46749;32.932;-117.130;2022-08-01T06:42:49;1.10;;;0.82;;
60896;SDS011;46749;32.932;-117.130;2022-08-01T06:45:15;1.02;;;0.77;;
60896;SDS011;46749;32.932;-117.130;2022-08-01T06:47:42;0.80;;;0.80;;
60896;SDS011;46749;32.932;-117.130;2022-08-01T06:50:10;1.20;;;0.90;;
60896;SDS011;46749;32.932;-117.130;2022-08-01T06:52:36;1.27;;;0.98;;
60896;SDS011;46749;32.932;-117.130;2022-08-01T06:55:03;1.10;;;0.90;;
60896;SDS011;46749;32.932;-117.130;2022-08-01T06:57:30;1.20;;;1.08;;
60896;SDS011;46749;32.932;-117.130;2022-08-01T06:59:56;1.10;;;0.90;;
60896;SDS011;46749;32.932;-117.130;2022-08-01T07:02:22;0.77;;;0.73;;
60896;SDS011;46749;32.932;-117.130;2022-08-01T07:04:48;1.85;;;1.10;;
60896;SDS011;46749;32.932;-117.130;2022-08-01T07:07:15;1.20;;;0.95;;
60896;SDS011;46749;32.932;-117.130;2022-08-01T07:09:41;1.27;;;1.10;;
60896;SDS011;46749;32.932;-117.130;2022-08-01T07:12:08;1.83;;;1.00;;
60896;SDS011;46749;32.932;-117.130;2022-08-01T07:14:34;1.55;;;1.00;;
60896;SDS011;46749;32.932;-117.130;2022-08-01T07:17:01;1.88;;;1.00;;
60896;SDS011;46749;32.932;-117.130;2022-08-01T07:19:27;1.52;;;1.02;;
60896;SDS011;46749;32.932;-117.130;2022-08-01T07:21:53;1.17;;;1.00;;
60896;SDS011;46749;32.932;-117.130;2022-08-01T07:24:19;1.10;;;0.90;;
60896;SDS011;46749;32.932;-117.130;2022-08-01T07:26:47;1.60;;;1.23;;
60896;SDS011;46749;32.932;-117.130;2022-08-01T07:29:14;1.00;;;0.90;;
60896;SDS011;46749;32.932;-117.130;2022-08-01T07:31:40;1.23;;;1.10;;
60896;SDS011;46749;32.932;-117.130;2022-08-01T07:36:52;1.13;;;0.98;;
60896;SDS011;46749;32.932;-117.130;2022-08-01T07:39:19;1.60;;;1.02;;
60896;SDS011;46749;32.932;-117.130;2022-08-01T07:41:45;1.42;;;1.20;;
60896;SDS011;46749;32.932;-117.130;2022-08-01T07:44:11;1.17;;;1.05;;
60896;SDS011;46749;32.932;-117.130;2022-08-01T07:46:37;1.38;;;1.00;;
60896;SDS011;46749;32.932;-117.130;2022-08-01T07:49:03;1.23;;;1.00;;
60896;SDS011;46749;32.932;-117.130;2022-08-01T07:51:29;1.38;;;1.10;;
60896;SDS011;46749;32.932;-117.130;2022-08-01T07:53:56;1.27;;;1.17;;
60896;SDS011;46749;32.932;-117.130;2022-08-01T07:56:22;1.60;;;1.15;;
60896;SDS011;46749;32.932;-117.130;2022-08-01T07:58:49;2.13;;;1.00;;
60896;SDS011;46749;32.932;-117.130;2022-08-01T08:01:16;1.25;;;1.15;;
60896;SDS011;46749;32.932;-117.130;2022-08-01T08:03:43;1.05;;;0.85;;
60896;SDS011;46749;32.932;-117.130;2022-08-01T08:06:09;1.38;;;1.17;;
60896;SDS011;46749;32.932;-117.130;2022-08-01T08:08:35;1.17;;;1.08;;
60896;SDS011;46749;32.932;-117.130;2022-08-01T08:11:01;1.20;;;1.00;;
60896;SDS011;46749;32.932;-117.130;2022-08-01T08:13:27;1.27;;;1.02;;
60896;SDS011;46749;32.932;-117.130;2022-08-01T08:15:53;1.60;;;1.10;;
60896;SDS011;46749;32.932;-117.130;2022-08-01T08:18:20;1.40;;;1.20;;
60896;SDS011;46749;32.932;-117.130;2022-08-01T08:20:46;1.52;;;1.10;;
60896;SDS011;46749;32.932;-117.130;2022-08-01T08:23:13;1.67;;;1.40;;
60896;SDS011;46749;32.932;-117.130;2022-08-01T08:25:57;1.20;;;1.00;;
60896;SDS011;46749;32.932;-117.130;2022-08-01T08:28:23;1.42;;;1.23;;
60896;SDS011;46749;32.932;-117.130;2022-08-01T08:30:50;1.23;;;0.93;;
60896;SDS011;46749;32.932;-117.130;2022-08-01T08:33:18;1.30;;;1.10;;
60896;SDS011;46749;32.932;-117.130;2022-08-01T08:35:44;1.15;;;0.93;;
60896;SDS011;46749;32.932;-117.130;2022-08-01T08:38:10;1.10;;;1.00;;
60896;SDS011;46749;32.932;-117.130;2022-08-01T08:40:36;1.23;;;1.00;;
60896;SDS011;46749;32.932;-117.130;2022-08-01T08:43:06;2.90;;;1.60;;
60896;SDS011;46749;32.932;-117.130;2022-08-01T08:45:32;1.60;;;1.13;;
60896;SDS011;46749;32.932;-117.130;2022-08-01T08:47:59;1.33;;;1.00;;
60896;SDS011;46749;32.932;-117.130;2022-08-01T08:50:26;1.55;;;1.15;;
60896;SDS011;46749;32.932;-117.130;2022-08-01T08:52:54;1.65;;;0.90;;
60896;SDS011;46749;32.932;-117.130;2022-08-01T08:55:21;1.17;;;1.08;;
60896;SDS011;46749;32.932;-117.130;2022-08-01T08:57:49;1.67;;;1.20;;
60896;SDS011;46749;32.932;-117.130;2022-08-01T09:00:18;1.92;;;1.10;;
60896;SDS011;46749;32.932;-117.130;2022-08-01T09:02:44;1.33;;;1.02;;
60896;SDS011;46749;32.932;-117.130;2022-08-01T09:05:12;1.17;;;1.08;;
60896;SDS011;46749;32.932;-117.130;2022-08-01T09:07:38;2.58;;;1.20;;
60896;SDS011;46749;32.932;-117.130;2022-08-01T09:10:05;2.08;;;1.10;;
60896;SDS011;46749;32.932;-117.130;2022-08-01T09:12:31;1.27;;;1.00;;
60896;SDS011;46749;32.932;-117.130;2022-08-01T09:14:58;1.00;;;0.90;;
60896;SDS011;46749;32.932;-117.130;2022-08-01T09:17:24;2.72;;;1.20;;
60896;SDS011;46749;32.932;-117.130;2022-08-01T09:19:54;1.35;;;1.08;;
60896;SDS011;46749;32.932;-117.130;2022-08-01T09:22:22;1.10;;;1.00;;
60896;SDS011;46749;32.932;-117.130;2022-08-01T09:25:06;1.30;;;1.20;;
60896;SDS011;46749;32.932;-117.130;2022-08-01T09:27:35;1.05;;;0.95;;
60896;SDS011;46749;32.932;-117.130;2022-08-01T09:30:12;1.02;;;0.90;;
60896;SDS011;46749;32.932;-117.130;2022-08-01T09:35:29;1.55;;;1.30;;
60896;SDS011;46749;32.932;-117.130;2022-08-01T09:38:11;1.33;;;0.90;;
60896;SDS011;46749;32.932;-117.130;2022-08-01T09:40:46;1.10;;;0.90;;
60896;SDS011;46749;32.932;-117.130;2022-08-01T09:43:17;1.15;;;0.98;;
60896;SDS011;46749;32.932;-117.130;2022-08-01T09:45:44;1.13;;;1.00;;
60896;SDS011;46749;32.932;-117.130;2022-08-01T09:48:11;1.27;;;0.95;;
60896;SDS011;46749;32.932;-117.130;2022-08-01T09:50:41;1.05;;;0.93;;
60896;SDS011;46749;32.932;-117.130;2022-08-01T09:53:08;1.00;;;0.77;;
60896;SDS011;46749;32.932;-117.130;2022-08-01T09:55:35;1.23;;;0.90;;
60896;SDS011;46749;32.932;-117.130;2022-08-01T09:58:02;0.80;;;0.60;;
60896;SDS011;46749;32.932;-117.130;2022-08-01T10:00:30;1.15;;;0.85;;
60896;SDS011;46749;32.932;-117.130;2022-08-01T10:02:58;1.17;;;1.08;;
60896;SDS011;46749;32.932;-117.130;2022-08-01T10:05:31;1.20;;;1.00;;
60896;SDS011;46749;32.932;-117.130;2022-08-01T10:08:00;1.17;;;0.90;;
60896;SDS011;46749;32.932;-117.130;2022-08-01T10:10:29;0.95;;;0.70;;
60896;SDS011;46749;32.932;-117.130;2022-08-01T10:12:57;1.60;;;0.90;;
60896;SDS011;46749;32.932;-117.130;2022-08-01T10:15:25;1.27;;;1.10;;
60896;SDS011;46749;32.932;-117.130;2022-08-01T10:17:56;0.98;;;0.88;;
60896;SDS011;46749;32.932;-117.130;2022-08-01T10:20:27;1.02;;;0.95;;
60896;SDS011;46749;32.932;-117.130;2022-08-01T10:22:55;1.30;;;0.95;;
60896;SDS011;46749;32.932;-117.130;2022-08-01T10:25:25;1.20;;;0.85;;
60896;SDS011;46749;32.932;-117.130;2022-08-01T10:27:53;1.15;;;0.98;;
60896;SDS011;46749;32.932;-117.130;2022-08-01T10:30:20;1.00;;;0.90;;
60896;SDS011;46749;32.932;-117.130;2022-08-01T10:32:46;0.70;;;0.60;;
60896;SDS011;46749;32.932;-117.130;2022-08-01T10:35:13;1.02;;;0.90;;
60896;SDS011;46749;32.932;-117.130;2022-08-01T10:37:46;1.30;;;0.90;;
60896;SDS011;46749;32.932;-117.130;2022-08-01T10:40:16;1.02;;;0.80;;
60896;SDS011;46749;32.932;-117.130;2022-08-01T10:42:43;0.98;;;0.70;;
60896;SDS011;46749;32.932;-117.130;2022-08-01T10:45:11;1.15;;;0.90;;
60896;SDS011;46749;32.932;-117.130;2022-08-01T10:47:47;0.95;;;0.80;;
60896;SDS011;46749;32.932;-117.130;2022-08-01T10:55:59;1.15;;;0.80;;
60896;SDS011;46749;32.932;-117.130;2022-08-01T10:58:28;0.80;;;0.80;;
60896;SDS011;46749;32.932;-117.130;2022-08-01T11:03:42;0.82;;;0.80;;
60896;SDS011;46749;32.932;-117.130;2022-08-01T11:06:17;1.00;;;0.70;;
60896;SDS011;46749;32.932;-117.130;2022-08-01T11:08:52;1.30;;;0.80;;
60896;SDS011;46749;32.932;-117.130;2022-08-01T11:11:20;1.13;;;1.00;;
60896;SDS011;46749;32.932;-117.130;2022-08-01T11:16:40;1.33;;;1.08;;
60896;SDS011;46749;32.932;-117.130;2022-08-01T11:19:07;0.85;;;0.70;;
60896;SDS011;46749;32.932;-117.130;2022-08-01T11:27:15;1.55;;;0.80;;
60896;SDS011;46749;32.932;-117.130;2022-08-01T11:32:46;0.80;;;0.70;;
60896;SDS011;46749;32.932;-117.130;2022-08-01T11:35:14;0.73;;;0.70;;
60896;SDS011;46749;32.932;-117.130;2022-08-01T11:37:41;0.80;;;0.80;;
60896;SDS011;46749;32.932;-117.130;2022-08-01T11:40:18;0.85;;;0.60;;
60896;SDS011;46749;32.932;-117.130;2022-08-01T11:42:49;0.93;;;0.70;;
60896;SDS011;46749;32.932;-117.130;2022-08-01T11:45:49;0.93;;;0.73;;
60896;SDS011;46749;32.932;-117.130;2022-08-01T11:48:24;0.60;;;0.60;;
60896;SDS011;46749;32.932;-117.130;2022-08-01T11:50:54;0.98;;;0.80;;
60896;SDS011;46749;32.932;-117.130;2022-08-01T11:53:20;0.93;;;0.82;;
60896;SDS011;46749;32.932;-117.130;2022-08-01T11:55:48;0.90;;;0.70;;
60896;SDS011;46749;32.932;-117.130;2022-08-01T11:58:19;1.10;;;0.85;;
60896;SDS011;46749;32.932;-117.130;2022-08-01T12:00:53;0.75;;;0.65;;
60896;SDS011;46749;32.932;-117.130;2022-08-01T12:03:26;1.13;;;0.80;;
60896;SDS011;46749;32.932;-117.130;2022-08-01T12:05:54;0.93;;;0.70;;
60896;SDS011;46749;32.932;-117.130;2022-08-01T12:08:27;1.30;;;0.90;;
60896;SDS011;46749;32.932;-117.130;2022-08-01T12:10:55;0.93;;;0.80;;
60896;SDS011;46749;32.932;-117.130;2022-08-01T12:13:21;0.80;;;0.80;;
60896;SDS011;46749;32.932;-117.130;2022-08-01T12:15:47;0.75;;;0.65;;
60896;SDS011;46749;32.932;-117.130;2022-08-01T12:18:15;0.65;;;0.60;;
60896;SDS011;46749;32.932;-117.130;2022-08-01T12:20:43;1.20;;;0.70;;
60896;SDS011;46749;32.932;-117.130;2022-08-01T12:23:12;1.00;;;0.73;;
60896;SDS011;46749;32.932;-117.130;2022-08-01T12:25:40;0.88;;;0.80;;
60896;SDS011;46749;32.932;-117.130;2022-08-01T12:28:09;0.90;;;0.80;;
60896;SDS011;46749;32.932;-117.130;2022-08-01T12:30:39;0.68;;;0.65;;
60896;SDS011;46749;32.932;-117.130;2022-08-01T12:33:07;0.70;;;0.70;;
60896;SDS011;46749;32.932;-117.130;2022-08-01T12:35:35;1.58;;;0.80;;
60896;SDS011;46749;32.932;-117.130;2022-08-01T12:38:05;0.77;;;0.70;;
60896;SDS011;46749;32.932;-117.130;2022-08-01T12:40:36;0.50;;;0.50;;
60896;SDS011;46749;32.932;-117.130;2022-08-01T12:43:07;0.80;;;0.70;;
60896;SDS011;46749;32.932;-117.130;2022-08-01T12:45:35;0.82;;;0.75;;
60896;SDS011;46749;32.932;-117.130;2022-08-01T12:48:14;0.95;;;0.77;;
60896;SDS011;46749;32.932;-117.130;2022-08-01T12:50:43;0.90;;;0.80;;
60896;SDS011;46749;32.932;-117.130;2022-08-01T12:53:11;0.73;;;0.60;;
60896;SDS011;46749;32.932;-117.130;2022-08-01T12:55:51;0.88;;;0.70;;
60896;SDS011;46749;32.932;-117.130;2022-08-01T12:58:20;0.77;;;0.70;;
60896;SDS011;46749;32.932;-117.130;2022-08-01T13:00:48;0.68;;;0.68;;
60896;SDS011;46749;32.932;-117.130;2022-08-01T13:03:17;1.15;;;0.80;;
60896;SDS011;46749;32.932;-117.130;2022-08-01T13:08:15;0.75;;;0.75;;
60896;SDS011;46749;32.932;-117.130;2022-08-01T13:11:07;0.85;;;0.70;;
60896;SDS011;46749;32.932;-117.130;2022-08-01T13:13:39;0.95;;;0.80;;
60896;SDS011;46749;32.932;-117.130;2022-08-01T13:16:06;1.00;;;0.70;;
60896;SDS011;46749;32.932;-117.130;2022-08-01T13:18:33;0.73;;;0.60;;
60896;SDS011;46749;32.932;-117.130;2022-08-01T13:21:07;0.80;;;0.60;;
60896;SDS011;46749;32.932;-117.130;2022-08-01T13:29:21;0.93;;;0.70;;
60896;SDS011;46749;32.932;-117.130;2022-08-01T13:31:54;0.82;;;0.77;;
60896;SDS011;46749;32.932;-117.130;2022-08-01T13:34:30;0.70;;;0.70;;
60896;SDS011;46749;32.932;-117.130;2022-08-01T13:36:58;0.60;;;0.60;;
60896;SDS011;46749;32.932;-117.130;2022-08-01T13:39:24;0.85;;;0.77;;
60896;SDS011;46749;32.932;-117.130;2022-08-01T13:42:08;0.80;;;0.60;;
60896;SDS011;46749;32.932;-117.130;2022-08-01T13:44:39;0.90;;;0.77;;
60896;SDS011;46749;32.932;-117.130;2022-08-01T13:47:06;1.10;;;0.77;;
60896;SDS011;46749;32.932;-117.130;2022-08-01T13:49:34;0.70;;;0.70;;
60896;SDS011;46749;32.932;-117.130;2022-08-01T13:52:00;0.70;;;0.60;;
60896;SDS011;46749;32.932;-117.130;2022-08-01T13:54:27;0.60;;;0.60;;
60896;SDS011;46749;32.932;-117.130;2022-08-01T13:56:53;0.65;;;0.65;;
60896;SDS011;46749;32.932;-117.130;2022-08-01T13:59:20;0.82;;;0.70;;
60896;SDS011;46749;32.932;-117.130;2022-08-01T14:01:47;0.63;;;0.60;;
60896;SDS011;46749;32.932;-117.130;2022-08-01T14:04:13;0.68;;;0.60;;
60896;SDS011;46749;32.932;-117.130;2022-08-01T14:06:39;0.60;;;0.60;;
60896;SDS011;46749;32.932;-117.130;2022-08-01T14:09:05;0.77;;;0.60;;
60896;SDS011;46749;32.932;-117.130;2022-08-01T14:11:32;1.10;;;0.65;;
60896;SDS011;46749;32.932;-117.130;2022-08-01T14:13:58;0.60;;;0.60;;
60896;SDS011;46749;32.932;-117.130;2022-08-01T14:16:24;0.60;;;0.60;;
60896;SDS011;46749;32.932;-117.130;2022-08-01T14:18:51;0.80;;;0.50;;
60896;SDS011;46749;32.932;-117.130;2022-08-01T14:21:17;1.00;;;0.73;;
60896;SDS011;46749;32.932;-117.130;2022-08-01T14:23:44;0.57;;;0.55;;
60896;SDS011;46749;32.932;-117.130;2022-08-01T14:26:10;0.73;;;0.65;;
60896;SDS011;46749;32.932;-117.130;2022-08-01T14:28:37;0.63;;;0.57;;
60896;SDS011;46749;32.932;-117.130;2022-08-01T14:31:04;1.00;;;0.70;;
60896;SDS011;46749;32.932;-117.130;2022-08-01T14:33:33;0.65;;;0.50;;
60896;SDS011;46749;32.932;-117.130;2022-08-01T14:36:00;0.60;;;0.52;;
60896;SDS011;46749;32.932;-117.130;2022-08-01T14:38:26;0.63;;;0.55;;
60896;SDS011;46749;32.932;-117.130;2022-08-01T14:40:52;1.00;;;0.65;;
60896;SDS011;46749;32.932;-117.130;2022-08-01T14:43:18;0.65;;;0.65;;
60896;SDS011;46749;32.932;-117.130;2022-08-01T14:45:45;0.50;;;0.50;;
60896;SDS011;46749;32.932;-117.130;2022-08-01T14:48:14;0.52;;;0.52;;
60896;SDS011;46749;32.932;-117.130;2022-08-01T14:50:44;0.88;;;0.80;;
60896;SDS011;46749;32.932;-117.130;2022-08-01T14:53:10;0.60;;;0.50;;
60896;SDS011;46749;32.932;-117.130;2022-08-01T14:55:36;0.68;;;0.68;;
60896;SDS011;46749;32.932;-117.130;2022-08-01T14:58:02;0.60;;;0.60;;
60896;SDS011;46749;32.932;-117.130;2022-08-01T15:00:28;0.55;;;0.55;;
60896;SDS011;46749;32.932;-117.130;2022-08-01T15:02:54;0.57;;;0.57;;